Purdue University Airport
KLAF : rendu visible

Aérodrome :











RETROUVEZ-NOUS SUR...

 
LOGIN :

S'inscrire | Disclaimer

   EN    FR    IT 

 









Légende :    VFR   VFR Marginal   IFR   IFR Intensif   IFR Très Intensif
Visi : 
Plafond : 
>= 8 km
>= 3000ft
5 à 8 km
1000 à 3000 ft
1500m à 5 km
500 à 1000 ft
800 à 1500m
200 à 500 ft
< 800m
< 200 ft
Symboles :   Orages  Brouillard  Fortes neiges  Fortes précipitations  Vent > 20 kt







- Altitude de l'aérodrome : 606 ft
- Code IATA : LAF


KLAF - Purdue University

DERNIER METAR :
  • 200554Z AUTO 36012G27KT 10SM FEW026 OVC038 06/02 A2970 RMK AO2 PK WND 35027/0551 SLP058 T00560022 10067 20050 58009

METARs EXPIRÉS :
  • 200545Z AUTO 01012G24KT 10SM SCT026 OVC038 06/02 A2970 RMK AO2 T00560022
  • 200454Z AUTO 36014KT 10SM BKN027 OVC034 05/02 A2970 RMK AO2 SLP060 T00500017 400830044
  • 200446Z AUTO 36013G21KT 10SM BKN028 OVC034 05/02 A2970 RMK AO2 T00500017
  • 200354Z AUTO 01013G20KT 10SM OVC050 05/02 A2972 RMK AO2 PK WND 35026/0324 SLP068 T00500017

TAF KLAF
Valide du 20 à 06h jusqu'au 21 à 06h UTC


200520Z 2006/2106 36014KT P6SM BKN025 OVC035
FM201200 36019G27KT 6SM -SHRA BR BKN019
FM201500 36021G29KT 6SM -SHRA BR BKN050
FM202000 36018G26KT P6SM VCSH SCT120
FM202200 35015KT P6SM SCT200 AMD LTD TO CLD VIS AND WIND TIL 201300
FIR KZAU / Amérique du Nord



MET'MAP, la Météo Aéronautique d'un coup d'oeil ! - Copyright ORBIFLY Décembre 2007 - Disclaimer

ORBIFLY MET'MAP TEAM :

Programmation & Développement : Alexandra Zaïnal
Conception & Développement : Baudouin d'Aumeries
Co-Programmation & Développement : Marc-Olivier Méhu
Soutien technique & logistique : Manuel Goepfert

Contact : metmap@orbifly.com




SOURCES & CREDITS :

   NOAA       Earth
Advisory